Flight Track Log - Related Links

Times and Time Zones

All times are in EDT time to prevent confusion due to time zone crossing. See the RPA3247 flight status page for this flight to view local times or setup timezone preferences in your user account.


Time Position Orientation Groundspeed Altitude Reporting Facility
EDT Latitude Longitude Course Direction KTS MPH feet Rate Location/Type
Fri 08:08:08 PM 38.8667 -77.0500 237° Southwest 158 182 900  Level Potomac TRACON
Fri 08:09:09 PM 38.9000 -77.0833 322° Northwest 208 239 2,700 2,132 Climbing Potomac TRACON
Fri 08:10:00 PM 38.6709 -77.3718 234° Southwest  Level FlightAware Approximate
Fri 08:10:09 PM 38.9667 -77.1500 322° Northwest 260 299 5,200  Level Potomac TRACON
Fri 08:11:00 PM 38.6104 -77.4855 247° West  Level FlightAware Approximate
Fri 08:11:15 PM 38.9500 -77.2333 256° West 270 311 9,100  Level Potomac TRACON
Fri 08:12:00 PM 38.5624 -77.6085 237° Southwest  Level FlightAware Approximate
Fri 08:12:16 PM 38.9000 -77.3000 226° Southwest 297 342 11,300  Level Potomac TRACON
Fri 08:13:00 PM 38.4986 -77.7194 237° Southwest  Level FlightAware Approximate
Fri 08:14:31 PM 38.7531 -77.4578 220° Southwest 314 361 15,000  Level Washington Center
Fri 08:15:32 PM 38.6786 -77.5408 221° Southwest 339 390 16,100 1,664 Climbing Washington Center
Fri 08:16:30 PM 38.6044 -77.6239 221° Southwest 350 403 18,300 2,136 Climbing Washington Center
Fri 08:17:30 PM 38.5278 -77.7069 220° Southwest 355 409 20,300 1,900 Climbing Washington Center
Fri 08:18:30 PM 38.4633 -77.8111 232° Southwest 360 414 22,100 2,083 Climbing Washington Center
Fri 08:19:31 PM 38.4028 -77.9283 237° Southwest 365 420 24,500 2,231 Climbing Washington Center
Fri 08:20:31 PM 38.3508 -78.0275 236° Southwest 358 412 26,600 1,250 Climbing Washington Center
Fri 08:21:31 PM 38.2967 -78.1314 236° Southwest 358 412 27,000 763 Climbing Washington Center
Fri 08:22:29 PM 38.2422 -78.2356 236° Southwest 358 412 28,100 1,068 Climbing Washington Center
Fri 08:23:29 PM 38.1833 -78.3469 236° Southwest 368 423 29,100 1,140 Climbing Washington Center
Fri 08:24:30 PM 38.1264 -78.4583 237° Southwest 373 429 30,400 1,736 Climbing Washington Center
Fri 08:25:30 PM 38.0886 -78.5625 245° Southwest 355 409 32,600 1,537 Climbing Washington Center
Fri 08:26:31 PM 38.0589 -78.6589 249° West 341 392 33,500 694 Climbing Washington Center
Fri 08:27:31 PM 38.0208 -78.7653 246° West 334 384 34,000 250 Climbing Washington Center
Fri 08:28:31 PM 37.9822 -78.8769 246° West 334 384 34,000  Level Washington Center
Fri 08:29:31 PM 37.9353 -78.9936 243° Southwest 339 390 34,000  Level Washington Center
Fri 08:30:31 PM 37.8842 -79.0992 238° Southwest 345 397 34,000  Level Washington Center
Fri 08:31:29 PM 37.8353 -79.2019 239° Southwest 350 403 34,000  Level Washington Center
Fri 08:32:30 PM 37.7842 -79.3047 238° Southwest 350 403 34,000  Level Washington Center
Fri 08:33:30 PM 37.7394 -79.3997 239° Southwest 350 403 34,000  Level Washington Center
Fri 08:34:31 PM 37.6883 -79.5019 238° Southwest 356 410 34,000  Level Washington Center
Fri 08:35:31 PM 37.6322 -79.6172 238° Southwest 356 410 34,000  Level Washington Center
Fri 08:36:29 PM 37.5875 -79.7064 238° Southwest 356 410 34,000  Level Washington Center
Fri 08:38:29 PM 37.4819 -79.9178 238° Southwest 357 411 34,000  Level Atlanta Center
Fri 08:39:29 PM 37.4314 -80.0222 239° Southwest 357 411 34,000  Level Atlanta Center
Fri 08:40:29 PM 37.3783 -80.1269 238° Southwest 357 411 34,000  Level Atlanta Center
Fri 08:41:29 PM 37.3214 -80.2392 237° Southwest 357 411 34,000  Level Atlanta Center
Fri 08:42:29 PM 37.2683 -80.3461 238° Southwest 352 405 34,000  Level Atlanta Center
Fri 08:43:29 PM 37.2172 -80.4503 238° Southwest 352 405 34,000  Level Atlanta Center
Fri 08:44:29 PM 37.1642 -80.5567 238° Southwest 352 405 34,000  Level Atlanta Center
Fri 08:45:29 PM 37.1167 -80.6500 237° Southwest 352 405 34,000  Level Atlanta Center
Fri 08:46:29 PM 37.0697 -80.7586 242° Southwest 352 405 34,000  Level Atlanta Center
Fri 08:47:29 PM 37.0286 -80.8694 245° Southwest 352 405 34,000 -200 Level Atlanta Center
Fri 08:48:29 PM 36.9897 -80.9803 246° West 352 405 33,600 -500 Descending Atlanta Center
Fri 08:49:29 PM 36.9450 -81.1039 246° West 352 405 33,000 -550 Descending Atlanta Center
Fri 08:50:29 PM 36.9058 -81.2169 247° West 357 411 32,500 -500 Descending Atlanta Center
Fri 08:51:29 PM 36.8625 -81.3303 244° Southwest 362 417 32,000 -250 Descending Atlanta Center
Fri 08:52:29 PM 36.8233 -81.4456 247° West 362 417 32,000  Level Atlanta Center
Fri 08:53:29 PM 36.7858 -81.5453 245° Southwest 362 417 32,000  Level Atlanta Center
Fri 08:54:29 PM 36.7444 -81.6683 247° West 362 417 32,000  Level Atlanta Center
Fri 08:55:29 PM 36.7028 -81.7836 246° West 362 417 32,000  Level Atlanta Center
Fri 08:56:29 PM 36.6631 -81.8933 246° West 362 417 32,000  Level Atlanta Center
Fri 08:57:29 PM 36.6192 -82.0083 245° Southwest 362 417 32,000  Level Atlanta Center
Fri 08:58:29 PM 36.5772 -82.1206 245° Southwest 362 417 32,000  Level Atlanta Center
Fri 08:59:29 PM 36.5372 -82.2325 246° West 362 417 32,000  Level Atlanta Center
Fri 09:00:29 PM 36.4950 -82.3447 245° Southwest 362 417 32,000  Level Atlanta Center
Fri 09:01:29 PM 36.4506 -82.4592 244° Southwest 362 417 32,000  Level Atlanta Center
Fri 09:02:29 PM 36.4083 -82.5708 245° Southwest 362 417 32,000  Level Atlanta Center
Fri 09:03:29 PM 36.3678 -82.6825 246° West 362 417 32,000  Level Atlanta Center
Fri 09:04:29 PM 36.3253 -82.7992 246° West 362 417 32,000  Level Atlanta Center
Fri 09:05:29 PM 36.2825 -82.9081 244° Southwest 361 415 32,000  Level Atlanta Center
Fri 09:06:29 PM 36.2417 -83.0194 246° West 361 415 32,000  Level Atlanta Center
Fri 09:07:29 PM 36.1989 -83.1306 245° Southwest 361 415 32,000  Level Atlanta Center
Fri 09:08:29 PM 36.1619 -83.2261 244° Southwest 361 415 32,000  Level Atlanta Center
Fri 09:09:29 PM 36.1208 -83.3344 245° Southwest 361 415 32,000  Level Atlanta Center
Fri 09:10:29 PM 36.0778 -83.4428 244° Southwest 361 415 32,000  Level Atlanta Center
Fri 09:11:29 PM 36.0156 -83.5433 233° Southwest 361 415 32,000  Level Atlanta Center
Fri 09:12:29 PM 35.9492 -83.6464 232° Southwest 366 421 32,000  Level Atlanta Center
Fri 09:13:29 PM 35.8847 -83.7414 230° Southwest 366 421 32,000  Level Atlanta Center
Fri 09:14:29 PM 35.8183 -83.8389 230° Southwest 371 427 32,000  Level Atlanta Center
Fri 09:15:29 PM 35.7517 -83.9364 230° Southwest 371 427 32,000  Level Atlanta Center
Fri 09:16:29 PM 35.6892 -84.0336 232° Southwest 371 427 32,000  Level Atlanta Center
Fri 09:17:29 PM 35.6222 -84.1281 229° Southwest 371 427 32,000  Level Atlanta Center
Fri 09:18:29 PM 35.5553 -84.2278 230° Southwest 371 427 32,000  Level Atlanta Center
Fri 09:19:29 PM 35.4906 -84.3219 230° Southwest 371 427 32,000  Level Atlanta Center
Fri 09:20:29 PM 35.4236 -84.4211 230° Southwest 376 433 32,000  Level Atlanta Center
Fri 09:21:29 PM 35.3628 -84.5075 229° Southwest 376 433 32,000  Level Atlanta Center
Fri 09:22:29 PM 35.2975 -84.6061 231° Southwest 376 433 32,000  Level Atlanta Center
Fri 09:23:29 PM 35.2303 -84.7050 230° Southwest 376 433 32,000  Level Atlanta Center
Fri 09:24:29 PM 35.1631 -84.7983 229° Southwest 376 433 32,000  Level Atlanta Center
Fri 09:25:29 PM 35.0978 -84.8967 231° Southwest 376 433 32,000  Level Atlanta Center
Fri 09:26:29 PM 35.0303 -84.9925 229° Southwest 376 433 32,000  Level Atlanta Center
Fri 09:27:29 PM 34.9647 -85.0856 229° Southwest 371 427 32,000  Level Atlanta Center
Fri 09:28:29 PM 34.8972 -85.1858 231° Southwest 376 433 32,000  Level Atlanta Center
Fri 09:29:29 PM 34.8272 -85.2836 229° Southwest 376 433 32,000  Level Atlanta Center
Fri 09:30:29 PM 34.7594 -85.3814 230° Southwest 376 433 32,000  Level Atlanta Center
Fri 09:31:29 PM 34.6917 -85.4761 229° Southwest 376 433 32,000  Level Atlanta Center
Fri 09:32:29 PM 34.6236 -85.5736 230° Southwest 376 433 32,000  Level Atlanta Center
Fri 09:33:29 PM 34.5556 -85.6706 230° Southwest 376 433 32,000  Level Atlanta Center
Fri 09:34:29 PM 34.4833 -85.7675 228° Southwest 376 433 32,000  Level Atlanta Center
Fri 09:35:29 PM 34.4172 -85.8644 230° Southwest 376 433 32,000  Level Atlanta Center
Fri 09:36:29 PM 34.3469 -85.9636 229° Southwest 381 438 32,000  Level Atlanta Center
Fri 09:37:29 PM 34.2764 -86.0625 229° Southwest 386 444 32,000  Level Atlanta Center
Fri 09:38:29 PM 34.2039 -86.1611 228° Southwest 391 450 32,000  Level Atlanta Center
Fri 09:39:29 PM 34.1333 -86.2572 228° Southwest 391 450 32,000  Level Atlanta Center
Fri 09:40:29 PM 34.0625 -86.3608 230° Southwest 391 450 32,000  Level Atlanta Center
Fri 09:41:29 PM 33.9917 -86.4567 228° Southwest 398 458 32,000  Level Atlanta Center
Fri 09:42:29 PM 33.9211 -86.5522 228° Southwest 393 452 32,000  Level Atlanta Center
Fri 09:43:29 PM 33.8500 -86.6478 228° Southwest 393 452 32,000  Level Atlanta Center
Fri 09:44:29 PM 33.7814 -86.7431 229° Southwest 388 447 32,000  Level Atlanta Center
Fri 09:45:29 PM 33.7103 -86.8406 229° Southwest 388 447 32,000  Level Atlanta Center
Fri 09:46:29 PM 33.6433 -86.9383 231° Southwest 388 447 32,000  Level Atlanta Center
Fri 09:47:29 PM 33.5783 -87.0333 231° Southwest 383 441 32,000  Level Atlanta Center
Fri 09:48:29 PM 33.5133 -87.1333 232° Southwest 378 435 32,000  Level Atlanta Center
Fri 09:49:29 PM 33.4483 -87.2281 231° Southwest 378 435 32,000  Level Atlanta Center
Fri 09:50:29 PM 33.3850 -87.3278 233° Southwest 378 435 32,000  Level Atlanta Center
Fri 09:52:09 PM 33.2694 -87.4975 231° Southwest 372 428 32,000  Level Memphis Center
Fri 09:53:09 PM 33.2028 -87.5989 232° Southwest 372 428 32,000  Level Memphis Center
Fri 09:54:09 PM 33.1400 -87.6928 231° Southwest 379 436 32,000  Level Memphis Center
Fri 09:55:09 PM 33.0733 -87.7889 230° Southwest 379 436 32,000  Level Memphis Center
Fri 09:56:09 PM 33.0064 -87.8850 230° Southwest 379 436 32,000  Level Memphis Center
Fri 09:57:09 PM 32.9517 -87.9731 233° Southwest 374 430 32,000  Level Memphis Center
Fri 09:58:09 PM 32.8889 -88.0689 232° Southwest 374 430 32,000  Level Memphis Center
Fri 09:59:09 PM 32.8217 -88.1644 230° Southwest 374 430 32,000  Level Memphis Center
Fri 10:00:09 PM 32.7564 -88.2600 231° Southwest 374 430 32,000  Level Memphis Center
Fri 10:01:09 PM 32.6911 -88.3553 231° Southwest 374 430 32,000  Level Memphis Center
Fri 10:02:09 PM 32.6258 -88.4506 231° Southwest 374 430 32,000  Level Memphis Center
Fri 10:03:09 PM 32.5625 -88.5431 231° Southwest 374 430 32,000  Level Memphis Center
Fri 10:04:09 PM 32.4972 -88.6381 231° Southwest 374 430 32,000  Level Memphis Center
Fri 10:05:09 PM 32.4336 -88.7303 231° Southwest 374 430 32,000  Level Memphis Center
Fri 10:06:09 PM 32.3639 -88.8225 228° Southwest 374 430 32,000  Level Memphis Center
Fri 10:07:09 PM 32.2814 -88.9003 219° Southwest 374 430 32,000  Level Memphis Center
Fri 10:08:09 PM 32.2028 -88.9800 221° Southwest 374 430 32,000  Level Memphis Center
Fri 10:09:09 PM 32.1203 -89.0572 218° Southwest 380 437 32,000  Level Memphis Center
Fri 10:10:09 PM 32.0417 -89.1344 220° Southwest 375 432 32,000  Level Memphis Center
Fri 10:11:09 PM 31.9589 -89.2114 218° Southwest 375 432 32,000 -247 Level Memphis Center
Fri 10:12:59 PM 31.8181 -89.3464 219° Southwest 372 428 31,300 -947 Descending Houston Center
Fri 10:14:00 PM 31.7375 -89.4242 219° Southwest 375 432 29,300 -2,164 Descending Houston Center
Fri 10:15:01 PM 31.6364 -89.5194 219° Southwest 385 443 26,900 -2,115 Descending Houston Center
Fri 10:16:02 PM 31.5547 -89.5969 219° Southwest 383 441 25,000 -1,415 Descending Houston Center
Fri 10:17:04 PM 31.4756 -89.6708 219° Southwest 369 425 24,000 -488 Descending Houston Center
Fri 10:18:05 PM 31.3981 -89.7461 220° Southwest 364 419 24,000  Level Houston Center
Fri 10:19:06 PM 31.3183 -89.8211 219° Southwest 368 423 24,000  Level Houston Center
Fri 10:20:07 PM 31.2372 -89.8986 219° Southwest 375 432 24,000  Level Houston Center
Fri 10:21:08 PM 31.1586 -89.9728 219° Southwest 369 425 24,000 -836 Level Houston Center
Fri 10:22:09 PM 31.0797 -90.0467 219° Southwest 367 422 22,300 -1,770 Descending Houston Center
Fri 10:23:10 PM 31.0028 -90.1189 219° Southwest 360 414 20,400 -2,016 Descending Houston Center
Fri 10:24:11 PM 30.9150 -90.2014 219° Southwest 346 398 18,200 -1,967 Descending Houston Center
Fri 10:25:12 PM 30.8256 -90.2217 191° South 343 395 16,400 -1,697 Descending Houston Center
Fri 10:25:50 PM 30.7669 -90.2194 178° South 340 391 15,400 -1,672 Descending Houston Center
Fri 10:26:13 PM 30.7331 -90.2158 175° South 333 383 14,700 -1,714 Descending Houston Center
Fri 10:26:39 PM 30.6914 -90.2128 176° South 323 372 14,000 -1,548 Descending Houston Center
Fri 10:27:15 PM 30.6467 -90.2094 176° South 317 365 13,100 -1,600 Descending Houston Center
Fri 10:27:39 PM 30.6078 -90.2067 176° South 299 344 12,400 -1,672 Descending Houston Center
Fri 10:28:16 PM 30.5644 -90.2064 180° South 302 348 11,400 -1,869 Descending Houston Center
Fri 10:28:40 PM 30.5242 -90.2078 182° South 299 344 10,500 -1,770 Descending Houston Center
Fri 10:29:17 PM 30.4814 -90.2086 181° South 300 345 9,600 -1,869 Descending Houston Center
Fri 10:29:41 PM 30.4428 -90.2086 180° South 296 341 8,600 -1,574 Descending Houston Center
Fri 10:30:18 PM 30.4031 -90.2100 182° South 289 333 8,000 -1,377 Descending Houston Center
Fri 10:30:42 PM 30.3633 -90.2117 182° South 262 302 7,200 -1,574 Descending Houston Center
Fri 10:31:19 PM 30.3317 -90.2111 179° South 269 310 6,400 -1,700 Descending Houston Center
Fri 10:31:42 PM 30.2925 -90.2122 181° South 246 283 5,500 -1,180 Descending Houston Center
Fri 10:32:20 PM 30.2642 -90.2122 180° South 255 293 5,200 -885 Descending Houston Center
Fri 10:32:43 PM 30.2297 -90.2125 180° South 220 253 4,600 -1,279 Descending Houston Center
Fri 10:33:21 PM 30.1942 -90.2142 182° South 231 266 3,900 -1,100 Descending Houston Center
Fri 10:33:43 PM 30.1733 -90.2147 181° South 197 227 3,500 -984 Descending Houston Center
Fri 10:34:22 PM 30.1428 -90.2144 180° South 208 239 2,900 -984 Descending Houston Center
Fri 10:34:44 PM 30.1211 -90.2144 180° South 185 213 2,500 -885 Descending Houston Center
Fri 10:35:23 PM 30.0922 -90.2156 182° South 194 223 2,000 -769 Descending Houston Center

Login

Don't have an account? Register now (free) for customized features, flight alerts, and more!